Coastal Carolina Regional Airport
KEWN : now visible

Airfield :











YOU CAN JOIN US ON...

 
LOGIN :

Register | Disclaimer

   EN    FR    IT 

 









Legend :    VFR   Marginal VFR   IFR   Intensive IFR   Very Intensive IFR
Visi :
Ceiling :
>= 8 km
>= 3000ft
5 to 8 km
1000 to 3000 ft
1500m to 5 km
500 to 1000 ft
800 to 1500m
200 to 500 ft
< 800m
< 200 ft
Symbols :   Thunderstorms  Fog  Heavy snow  Heavy precipitations  Wind > 20 kt






- Airport Elevation : 18 ft
- IATA code : EWN


KEWN - Coastal Carolina Regional

CURRENT METAR :
  • 190254Z AUTO 29004KT 2 1/2SM BR BKN004 OVC012 08/08 A2982 RMK AO2 SLP098 60001 T00830078 51008

EXPIRED METARs :
  • 190235Z 30003KT 4SM BR BKN004 OVC009 08/07 A2982 RMK AO2 T00830072
  • 190222Z 30003KT 3SM BR BKN005 OVC009 08/07 A2982 RMK AO2 T00830072
  • 190214Z 30003KT 2 1/2SM BR OVC007 08/07 A2982 RMK AO2 T00830072
  • 190154Z 00000KT 5SM BR BKN009 OVC017 08/07 A2981 RMK AO2 SLP095 T00830072
  • 190112Z 00000KT 3SM BR FEW004 OVC011 08/08 A2981 RMK AO2 T00830078
  • 190054Z 00000KT 9SM OVC011 08/07 A2981 RMK AO2 RAE21 SLP094 P0001 T00830072
  • 190032Z 00000KT 10SM FEW005 OVC012 08/07 A2981 RMK AO2 RAE21 P0001 T00830072

TAF KEWN
Valid from the 19 at 03:00 until the 20 at 00:00 UTC


190234Z 1903/1924 30004KT 3SM BR BKN004
FM191200 VRB03KT P6SM BKN015
FM191600 VRB03KT P6SM BKN050



MET'MAP, your aeronautical weather chart ! - Copyright ORBIFLY December 2007 - Disclaimer

ORBIFLY MET'MAP TEAM :

Programming & Development : Alexandra Zaïnal
Concept & Development : Baudouin d'Aumeries
Co-Development & Prog : Marc-Olivier Méhu
Technical & hardware support : Manuel Goepfert

Contact : metmap@orbifly.com




SOURCES & CREDITS :

   NOAA       Earth
Advisory